Time;durP1;ratioP1;P1;durP2;ratioP2;P2;SDS_P1;SDS_P2;PMS_P1;PMS_P2;Temp;Humidity;BMP_temperature;BMP_pressure;BME280_temperature;BME280_humidity;BME280_pressure;Samples;Min_cycle;Max_cycle;Signal;HPM_P1;HPM_P2
2022/04/27 00:02:02;;;;;;;20.30;15.23;;;;;;;;;;4948744;29;20663;-76
2022/04/27 00:04:29;;;;;;;21.10;15.10;;;;;;;;;;4938215;29;20225;-75
2022/04/27 00:06:56;;;;;;;21.77;15.30;;;;;;;;;;4950422;28;20246;-76
2022/04/27 00:09:23;;;;;;;20.87;14.70;;;;;;;;;;4943879;29;20372;-75
2022/04/27 00:11:50;;;;;;;20.23;15.03;;;;;;;;;;4942529;29;20260;-75
2022/04/27 00:14:20;;;;;;;21.33;14.17;;;;;;;;;;4939179;29;20689;-75
2022/04/27 00:16:48;;;;;;;20.57;14.83;;;;;;;;;;4941747;28;20210;-75
2022/04/27 00:19:15;;;;;;;19.30;14.10;;;;;;;;;;4942879;29;20204;-75
2022/04/27 00:21:42;;;;;;;18.87;14.30;;;;;;;;;;4935131;29;20295;-75
2022/04/27 00:24:09;;;;;;;18.57;13.37;;;;;;;;;;4949156;29;20297;-75
2022/04/27 00:26:37;;;;;;;20.27;13.60;;;;;;;;;;4947312;29;20235;-75
2022/04/27 00:29:04;;;;;;;18.73;13.40;;;;;;;;;;4953189;29;20208;-76
2022/04/27 00:31:33;;;;;;;19.33;13.90;;;;;;;;;;4953684;29;20607;-76
2022/04/27 00:34:01;;;;;;;15.53;12.80;;;;;;;;;;4943586;29;20235;-75
2022/04/27 00:36:28;;;;;;;17.23;13.67;;;;;;;;;;4950002;29;20295;-75
2022/04/27 00:38:55;;;;;;;19.17;12.80;;;;;;;;;;4938284;29;20286;-75
2022/04/27 00:41:22;;;;;;;18.33;13.13;;;;;;;;;;4946700;28;20555;-75
2022/04/27 00:43:49;;;;;;;16.70;11.80;;;;;;;;;;4945523;29;20955;-75
2022/04/27 00:46:17;;;;;;;13.77;11.23;;;;;;;;;;4945896;29;20297;-76
2022/04/27 00:48:45;;;;;;;16.17;12.67;;;;;;;;;;4944625;28;20621;-76
2022/04/27 00:51:14;;;;;;;16.57;11.80;;;;;;;;;;4952974;29;20259;-75
2022/04/27 00:53:41;;;;;;;16.73;11.27;;;;;;;;;;4952645;29;20244;-74
2022/04/27 00:56:09;;;;;;;16.23;11.30;;;;;;;;;;4953214;29;20307;-75
2022/04/27 00:58:36;;;;;;;15.83;11.53;;;;;;;;;;4952503;29;20250;-76
2022/04/27 01:01:03;;;;;;;15.00;10.87;;;;;;;;;;4940261;29;20240;-75
2022/04/27 01:03:30;;;;;;;17.13;10.90;;;;;;;;;;4944470;29;20611;-75
2022/04/27 01:05:59;;;;;;;12.70;10.80;;;;;;;;;;4952388;29;20238;-75
2022/04/27 01:08:26;;;;;;;12.97;10.10;;;;;;;;;;4938502;29;20259;-74
2022/04/27 01:10:54;;;;;;;13.67;10.63;;;;;;;;;;4950225;29;20262;-76
2022/04/27 01:13:21;;;;;;;13.50;9.97;;;;;;;;;;4953248;29;20243;-75
2022/04/27 01:15:49;;;;;;;14.00;10.50;;;;;;;;;;4952469;29;20210;-75
2022/04/27 01:18:16;;;;;;;11.43;9.70;;;;;;;;;;4952721;29;20249;-75
2022/04/27 01:20:45;;;;;;;13.20;10.07;;;;;;;;;;4953316;29;20235;-75
2022/04/27 01:23:13;;;;;;;12.07;9.40;;;;;;;;;;4941907;29;20207;-75
2022/04/27 01:25:48;;;;;;;13.37;9.27;;;;;;;;;;4941620;29;20199;-75
2022/04/27 01:28:16;;;;;;;15.13;10.00;;;;;;;;;;4951594;29;20206;-75
2022/04/27 01:30:44;;;;;;;15.00;10.27;;;;;;;;;;4937705;29;20701;-76
2022/04/27 01:33:11;;;;;;;13.40;9.50;;;;;;;;;;4943007;29;20216;-75
2022/04/27 01:35:40;;;;;;;12.60;9.47;;;;;;;;;;4946204;29;20248;-76
2022/04/27 01:38:09;;;;;;;12.63;9.77;;;;;;;;;;4940345;28;20301;-74
2022/04/27 01:40:36;;;;;;;11.83;9.40;;;;;;;;;;4935291;29;20241;-75
2022/04/27 01:43:04;;;;;;;13.63;9.40;;;;;;;;;;4940139;29;20287;-75
2022/04/27 01:45:31;;;;;;;12.37;9.10;;;;;;;;;;4947014;29;20219;-75
2022/04/27 01:47:58;;;;;;;12.17;9.30;;;;;;;;;;4949687;29;20238;-74
2022/04/27 01:50:26;;;;;;;12.83;9.57;;;;;;;;;;4951428;29;21825;-75
2022/04/27 01:55:39;;;;;;;11.03;9.27;;;;;;;;;;4951710;29;20259;-75
2022/04/27 01:58:07;;;;;;;12.00;9.50;;;;;;;;;;4946450;28;20207;-75
2022/04/27 02:00:35;;;;;;;12.73;9.00;;;;;;;;;;4953034;29;21529;-75
2022/04/27 02:03:02;;;;;;;14.73;8.80;;;;;;;;;;4948683;28;20245;-75
2022/04/27 02:05:29;;;;;;;12.07;9.40;;;;;;;;;;4953182;28;20242;-75
2022/04/27 02:07:57;;;;;;;12.43;9.20;;;;;;;;;;4956692;29;20278;-75
2022/04/27 02:10:24;;;;;;;16.27;9.33;;;;;;;;;;4945650;29;20726;-75
2022/04/27 02:12:53;;;;;;;11.87;8.87;;;;;;;;;;4954029;28;20297;-76
2022/04/27 02:15:20;;;;;;;12.27;9.07;;;;;;;;;;4946650;29;20243;-75
2022/04/27 02:17:48;;;;;;;11.53;8.77;;;;;;;;;;4952480;28;20627;-75
2022/04/27 02:20:18;;;;;;;14.13;9.37;;;;;;;;;;4944683;29;20350;-76
2022/04/27 02:22:45;;;;;;;11.17;8.73;;;;;;;;;;4945699;29;20299;-75
2022/04/27 02:25:13;;;;;;;11.43;8.90;;;;;;;;;;4948431;29;20208;-75
2022/04/27 02:27:40;;;;;;;10.63;8.90;;;;;;;;;;4947191;29;20238;-75
2022/04/27 02:30:10;;;;;;;12.23;8.73;;;;;;;;;;4950663;29;20226;-75
2022/04/27 02:32:37;;;;;;;11.97;8.83;;;;;;;;;;4947429;29;20299;-76
2022/04/27 02:35:04;;;;;;;13.10;8.80;;;;;;;;;;4946492;29;20675;-75
2022/04/27 02:37:32;;;;;;;12.30;9.03;;;;;;;;;;4945620;29;20294;-75
2022/04/27 02:39:59;;;;;;;11.83;8.53;;;;;;;;;;4952333;28;20302;-75
2022/04/27 02:42:26;;;;;;;14.90;9.10;;;;;;;;;;4942546;29;20291;-76
2022/04/27 02:44:53;;;;;;;9.90;8.43;;;;;;;;;;4954247;28;20292;-75
2022/04/27 02:47:22;;;;;;;10.33;9.03;;;;;;;;;;4951248;28;20282;-75
2022/04/27 02:52:34;;;;;;;10.57;8.83;;;;;;;;;;4944451;29;20206;-76
2022/04/27 02:55:01;;;;;;;13.13;8.83;;;;;;;;;;4951268;29;20694;-76
2022/04/27 02:57:28;;;;;;;11.53;8.27;;;;;;;;;;4941041;29;20227;-75
2022/04/27 02:59:55;;;;;;;10.03;8.57;;;;;;;;;;4942864;29;20201;-76
2022/04/27 03:02:24;;;;;;;10.90;8.33;;;;;;;;;;4950907;29;20204;-74
2022/04/27 03:04:51;;;;;;;11.53;8.97;;;;;;;;;;4951515;28;20243;-76
2022/04/27 03:07:18;;;;;;;11.30;8.67;;;;;;;;;;4945366;29;20337;-76
2022/04/27 03:09:47;;;;;;;14.03;8.70;;;;;;;;;;4939271;29;20263;-76
2022/04/27 03:12:14;;;;;;;10.67;8.97;;;;;;;;;;4945386;29;20214;-76
2022/04/27 03:14:41;;;;;;;13.07;9.10;;;;;;;;;;4955086;29;20302;-76
2022/04/27 03:17:08;;;;;;;14.03;8.83;;;;;;;;;;4955226;29;20294;-77
2022/04/27 03:19:37;;;;;;;14.47;8.63;;;;;;;;;;4954648;28;20285;-75
2022/04/27 03:22:05;;;;;;;11.80;8.93;;;;;;;;;;4954553;29;20211;-76
2022/04/27 03:24:32;;;;;;;12.10;8.63;;;;;;;;;;4954399;29;20207;-76
2022/04/27 03:26:59;;;;;;;12.83;9.57;;;;;;;;;;4955467;29;20290;-76
2022/04/27 03:29:26;;;;;;;12.97;8.80;;;;;;;;;;4950783;29;20302;-75
2022/04/27 03:31:53;;;;;;;12.83;8.67;;;;;;;;;;4950887;29;20310;-76
2022/04/27 03:34:21;;;;;;;12.77;8.70;;;;;;;;;;4950027;29;20207;-75
2022/04/27 03:36:49;;;;;;;10.03;8.30;;;;;;;;;;4942854;29;20236;-76
2022/04/27 03:39:16;;;;;;;12.10;8.73;;;;;;;;;;4935556;29;20247;-76
2022/04/27 03:41:44;;;;;;;12.30;8.87;;;;;;;;;;4954088;29;20221;-76
2022/04/27 03:44:11;;;;;;;13.57;8.83;;;;;;;;;;4953903;29;20298;-76
2022/04/27 03:46:38;;;;;;;11.57;8.90;;;;;;;;;;4945894;29;20246;-75
2022/04/27 03:49:05;;;;;;;13.53;9.40;;;;;;;;;;4941555;29;20291;-75
2022/04/27 03:51:32;;;;;;;14.90;9.50;;;;;;;;;;4953840;29;20313;-75
2022/04/27 03:54:01;;;;;;;14.63;9.13;;;;;;;;;;4949617;29;20226;-75
2022/04/27 03:56:28;;;;;;;12.17;9.23;;;;;;;;;;4938936;29;20299;-75
2022/04/27 03:58:55;;;;;;;13.30;9.27;;;;;;;;;;4934921;29;20263;-75
2022/04/27 04:01:25;;;;;;;12.50;9.27;;;;;;;;;;4936515;29;20203;-75
2022/04/27 04:03:52;;;;;;;12.03;9.60;;;;;;;;;;4952406;29;20210;-75
2022/04/27 04:06:19;;;;;;;12.07;8.87;;;;;;;;;;4943571;29;20751;-75
2022/04/27 04:08:47;;;;;;;14.97;9.37;;;;;;;;;;4946493;29;20429;-75
2022/04/27 04:11:15;;;;;;;12.67;8.97;;;;;;;;;;4943269;29;20317;-75
2022/04/27 04:13:42;;;;;;;11.00;8.87;;;;;;;;;;4940329;29;20277;-75
2022/04/27 04:16:09;;;;;;;12.27;9.33;;;;;;;;;;4953657;28;20241;-75
2022/04/27 04:18:37;;;;;;;13.17;9.43;;;;;;;;;;4954206;29;20662;-75
2022/04/27 04:21:04;;;;;;;13.20;9.20;;;;;;;;;;4952689;29;20736;-75
2022/04/27 04:23:31;;;;;;;10.43;8.70;;;;;;;;;;4947748;29;20242;-76
2022/04/27 04:28:44;;;;;;;13.70;9.00;;;;;;;;;;4946186;29;20694;-76
2022/04/27 04:31:13;;;;;;;11.57;9.00;;;;;;;;;;4944117;29;20318;-75
2022/04/27 04:33:40;;;;;;;14.07;9.43;;;;;;;;;;4935359;29;20207;-75
2022/04/27 04:36:08;;;;;;;11.20;9.13;;;;;;;;;;4942930;29;20215;-75
2022/04/27 04:38:35;;;;;;;13.13;9.00;;;;;;;;;;4935174;29;20256;-76
2022/04/27 04:41:03;;;;;;;14.10;9.30;;;;;;;;;;4945287;29;20293;-75
2022/04/27 04:43:32;;;;;;;14.20;8.73;;;;;;;;;;4943805;28;20237;-75
2022/04/27 04:46:00;;;;;;;12.90;9.33;;;;;;;;;;4947312;28;20211;-75
2022/04/27 04:48:28;;;;;;;15.43;9.50;;;;;;;;;;4934789;29;20293;-75
2022/04/27 04:50:55;;;;;;;13.27;9.30;;;;;;;;;;4946215;29;20313;-73
2022/04/27 04:53:22;;;;;;;12.93;9.37;;;;;;;;;;4952755;29;20579;-76
2022/04/27 04:55:50;;;;;;;12.90;9.13;;;;;;;;;;4946211;29;20225;-76
2022/04/27 04:58:17;;;;;;;12.77;9.43;;;;;;;;;;4952297;29;20238;-75
2022/04/27 05:00:45;;;;;;;14.17;9.10;;;;;;;;;;4937999;29;20605;-75
2022/04/27 05:03:14;;;;;;;14.03;9.33;;;;;;;;;;4934394;29;20648;-76
2022/04/27 05:05:41;;;;;;;13.70;8.90;;;;;;;;;;4947434;29;20293;-74
2022/04/27 05:08:09;;;;;;;13.63;9.00;;;;;;;;;;4951768;28;20774;-75
2022/04/27 05:10:37;;;;;;;13.30;9.40;;;;;;;;;;4964593;28;20323;-75
2022/04/27 05:13:05;;;;;;;12.77;8.77;;;;;;;;;;4953246;28;20214;-76
2022/04/27 05:15:32;;;;;;;13.77;9.33;;;;;;;;;;4952028;28;20261;-76
2022/04/27 05:18:00;;;;;;;12.50;8.77;;;;;;;;;;4950190;29;20234;-75
2022/04/27 05:20:28;;;;;;;12.10;9.60;;;;;;;;;;4952078;28;20289;-74
2022/04/27 05:22:55;;;;;;;12.37;9.33;;;;;;;;;;4951340;28;20654;-76
2022/04/27 05:25:23;;;;;;;12.57;9.07;;;;;;;;;;4938633;29;20203;-76
2022/04/27 05:27:50;;;;;;;14.00;9.10;;;;;;;;;;4955702;28;20293;-77
2022/04/27 05:33:02;;;;;;;14.20;9.23;;;;;;;;;;4949575;28;20281;-76
2022/04/27 05:35:31;;;;;;;11.67;8.77;;;;;;;;;;4954293;28;20241;-76
2022/04/27 05:37:58;;;;;;;12.03;9.10;;;;;;;;;;4959077;28;20210;-76
2022/04/27 05:40:25;;;;;;;12.83;8.20;;;;;;;;;;4957348;28;20211;-75
2022/04/27 05:42:54;;;;;;;12.90;8.37;;;;;;;;;;4957613;29;20207;-76
2022/04/27 05:45:21;;;;;;;9.97;8.43;;;;;;;;;;4959619;28;20215;-76
2022/04/27 05:47:49;;;;;;;12.20;8.67;;;;;;;;;;4959421;29;20298;-76
2022/04/27 05:50:16;;;;;;;13.47;9.17;;;;;;;;;;4956810;29;20285;-76
2022/04/27 05:52:50;;;;;;;12.90;8.77;;;;;;;;;;4950754;28;20227;-76
2022/04/27 05:55:17;;;;;;;10.47;8.10;;;;;;;;;;4945848;29;20203;-76
2022/04/27 05:57:44;;;;;;;14.50;8.30;;;;;;;;;;4951264;28;20289;-76
2022/04/27 06:00:12;;;;;;;11.67;8.60;;;;;;;;;;4955109;29;20290;-76
2022/04/27 06:02:39;;;;;;;11.17;8.00;;;;;;;;;;4950010;29;20682;-76
2022/04/27 06:05:07;;;;;;;13.27;7.90;;;;;;;;;;4954811;28;20206;-76
2022/04/27 06:07:36;;;;;;;9.17;7.73;;;;;;;;;;4954663;29;20733;-76
2022/04/27 06:10:04;;;;;;;9.37;7.90;;;;;;;;;;4944180;28;20628;-76
2022/04/27 06:12:35;;;;;;;9.27;7.70;;;;;;;;;;4951258;29;20262;-76
2022/04/27 06:15:03;;;;;;;10.00;7.77;;;;;;;;;;4950802;29;20221;-76
2022/04/27 06:17:30;;;;;;;10.20;7.63;;;;;;;;;;4950931;29;20294;-76
2022/04/27 06:19:58;;;;;;;10.63;7.70;;;;;;;;;;4948496;28;20300;-76
2022/04/27 06:22:25;;;;;;;8.63;7.50;;;;;;;;;;4948051;29;20716;-76
2022/04/27 06:24:52;;;;;;;10.87;7.50;;;;;;;;;;4955548;29;20206;-74
2022/04/27 06:27:21;;;;;;;9.00;7.67;;;;;;;;;;4944244;29;20667;-75
2022/04/27 06:29:48;;;;;;;11.03;8.17;;;;;;;;;;4948129;29;20285;-75
2022/04/27 06:32:15;;;;;;;9.90;7.50;;;;;;;;;;4948937;29;20330;-75
2022/04/27 06:34:42;;;;;;;8.60;7.70;;;;;;;;;;4940361;29;20242;-76
2022/04/27 06:37:10;;;;;;;9.27;7.83;;;;;;;;;;4940337;29;20250;-76
2022/04/27 06:39:38;;;;;;;10.87;8.07;;;;;;;;;;4952677;28;20241;-76
2022/04/27 06:42:06;;;;;;;9.93;7.83;;;;;;;;;;4955325;28;20214;-76
2022/04/27 06:44:35;;;;;;;10.03;7.90;;;;;;;;;;4945712;28;20208;-75
2022/04/27 06:47:03;;;;;;;10.07;8.30;;;;;;;;;;4950255;29;20203;-76
2022/04/27 06:49:30;;;;;;;9.03;8.07;;;;;;;;;;4949469;28;20610;-76
2022/04/27 06:51:58;;;;;;;9.07;8.17;;;;;;;;;;4955715;29;20257;-75
2022/04/27 06:54:25;;;;;;;11.03;8.50;;;;;;;;;;4955543;28;20289;-75
2022/04/27 06:56:52;;;;;;;12.40;8.97;;;;;;;;;;4955730;28;20234;-75
2022/04/27 06:59:19;;;;;;;9.93;8.93;;;;;;;;;;4955399;28;20287;-76
2022/04/27 07:01:48;;;;;;;10.70;8.73;;;;;;;;;;4949608;29;20227;-76
2022/04/27 07:04:15;;;;;;;10.60;8.53;;;;;;;;;;4947046;29;20286;-77
2022/04/27 07:06:42;;;;;;;10.03;9.03;;;;;;;;;;4955683;29;21015;-76
2022/04/27 07:09:11;;;;;;;10.23;8.57;;;;;;;;;;4938828;29;20323;-77
2022/04/27 07:11:40;;;;;;;10.23;8.67;;;;;;;;;;4936801;29;20227;-77
2022/04/27 07:14:08;;;;;;;10.47;9.37;;;;;;;;;;4941194;29;20211;-74
2022/04/27 07:16:35;;;;;;;10.18;9.18;;;;;;;;;;4947976;29;20655;-77
2022/04/27 07:19:04;;;;;;;11.80;9.32;;;;;;;;;;4940496;29;20286;-76
2022/04/27 07:21:31;;;;;;;10.32;9.18;;;;;;;;;;4945443;28;20275;-77
2022/04/27 07:24:02;;;;;;;10.32;8.80;;;;;;;;;;4949555;28;20202;-76
2022/04/27 07:26:29;;;;;;;10.23;8.93;;;;;;;;;;4948352;29;20199;-77
2022/04/27 07:28:56;;;;;;;11.82;8.98;;;;;;;;;;4941809;29;20246;-76
2022/04/27 07:31:23;;;;;;;13.48;9.73;;;;;;;;;;4952518;29;20652;-77
2022/04/27 07:33:51;;;;;;;11.82;9.95;;;;;;;;;;4955345;29;20238;-76
2022/04/27 07:36:20;;;;;;;12.13;9.90;;;;;;;;;;4953095;29;20289;-76
2022/04/27 07:38:47;;;;;;;11.63;9.65;;;;;;;;;;4948050;29;20235;-77
2022/04/27 07:41:14;;;;;;;11.63;10.32;;;;;;;;;;4943275;29;20247;-76
2022/04/27 07:43:42;;;;;;;12.52;10.55;;;;;;;;;;4945986;29;20293;-77
2022/04/27 07:46:09;;;;;;;11.32;10.20;;;;;;;;;;4948925;29;20668;-77
2022/04/27 07:48:36;;;;;;;11.13;9.93;;;;;;;;;;4951561;29;20243;-77
2022/04/27 07:51:05;;;;;;;13.40;10.73;;;;;;;;;;4954730;28;20238;-77
2022/04/27 07:53:34;;;;;;;11.88;10.30;;;;;;;;;;4955328;29;20652;-77
2022/04/27 07:56:01;;;;;;;11.63;10.43;;;;;;;;;;4955242;28;20234;-77
2022/04/27 07:58:28;;;;;;;11.60;10.45;;;;;;;;;;4947274;28;20290;-77
2022/04/27 08:00:57;;;;;;;12.75;11.40;;;;;;;;;;4950926;29;20322;-77
2022/04/27 08:03:25;;;;;;;12.40;11.07;;;;;;;;;;4943381;29;20195;-77
2022/04/27 08:05:52;;;;;;;11.75;10.55;;;;;;;;;;4944199;29;20212;-77
2022/04/27 08:08:20;;;;;;;14.05;10.77;;;;;;;;;;4940349;29;20334;-77
2022/04/27 08:10:48;;;;;;;13.10;11.77;;;;;;;;;;4951485;29;20234;-77
2022/04/27 08:13:16;;;;;;;12.43;11.13;;;;;;;;;;4949391;28;20603;-77
2022/04/27 08:15:44;;;;;;;12.13;10.77;;;;;;;;;;4945337;29;20214;-77
2022/04/27 08:18:11;;;;;;;12.68;11.38;;;;;;;;;;4940155;29;20207;-77
2022/04/27 08:23:28;;;;;;;13.55;12.25;;;;;;;;;;4941472;29;20593;-77
2022/04/27 08:25:58;;;;;;;13.48;11.77;;;;;;;;;;4943690;29;20212;-77
2022/04/27 08:28:25;;;;;;;14.00;12.20;;;;;;;;;;4938118;29;20286;-77
2022/04/27 08:30:53;;;;;;;13.73;12.32;;;;;;;;;;4938018;29;20303;-78
2022/04/27 08:33:20;;;;;;;13.88;12.23;;;;;;;;;;4949305;29;20259;-78
2022/04/27 08:35:47;;;;;;;14.60;12.30;;;;;;;;;;4946598;29;20214;-78
2022/04/27 08:38:15;;;;;;;15.60;12.68;;;;;;;;;;4942379;29;20298;-77
2022/04/27 08:40:43;;;;;;;13.70;12.27;;;;;;;;;;4937469;29;20234;-78
2022/04/27 08:43:11;;;;;;;13.80;12.48;;;;;;;;;;4938392;29;20239;-77
2022/04/27 08:45:40;;;;;;;13.70;12.15;;;;;;;;;;4951446;28;20290;-78
2022/04/27 08:48:08;;;;;;;14.20;12.70;;;;;;;;;;4953802;29;20239;-78
2022/04/27 08:50:36;;;;;;;13.30;11.85;;;;;;;;;;4954048;29;20214;-77
2022/04/27 08:53:03;;;;;;;15.43;12.20;;;;;;;;;;4936173;29;20323;-77
2022/04/27 08:55:30;;;;;;;15.30;13.25;;;;;;;;;;4940664;28;20207;-78
2022/04/27 08:58:07;;;;;;;15.27;13.68;;;;;;;;;;4934799;29;20204;-77
2022/04/27 09:00:35;;;;;;;17.23;13.38;;;;;;;;;;4919934;29;20212;-78
2022/04/27 09:03:17;;;;;;;16.20;13.52;;;;;;;;;;4948968;28;20227;-78
2022/04/27 09:05:50;;;;;;;16.73;13.32;;;;;;;;;;4941753;29;20303;-77
2022/04/27 09:08:17;;;;;;;15.65;13.95;;;;;;;;;;4942371;28;20239;-77
2022/04/27 09:10:45;;;;;;;16.23;13.82;;;;;;;;;;4948384;29;20241;-75
2022/04/27 09:13:12;;;;;;;15.93;13.65;;;;;;;;;;4949250;28;20230;-76
2022/04/27 09:15:42;;;;;;;15.02;13.27;;;;;;;;;;4949507;29;20218;-76
2022/04/27 09:21:03;;;;;;;15.93;13.48;;;;;;;;;;4958847;28;20542;-77
2022/04/27 09:23:37;;;;;;;15.45;13.70;;;;;;;;;;4958361;28;20227;-76
2022/04/27 09:26:15;;;;;;;17.65;14.05;;;;;;;;;;4961381;28;20302;-75
2022/04/27 09:28:47;;;;;;;16.02;13.45;;;;;;;;;;4956515;28;20202;-76
2022/04/27 09:31:28;;;;;;;15.77;14.20;;;;;;;;;;4959620;28;20239;-75
2022/04/27 09:33:58;;;;;;;15.48;13.80;;;;;;;;;;4960045;28;20238;-76
2022/04/27 09:36:26;;;;;;;16.95;13.18;;;;;;;;;;4955209;28;20207;-76
2022/04/27 09:38:53;;;;;;;14.52;12.95;;;;;;;;;;4945653;29;20207;-76
2022/04/27 09:41:36;;;;;;;14.63;12.82;;;;;;;;;;4950491;29;20207;-76
2022/04/27 09:44:03;;;;;;;15.70;13.48;;;;;;;;;;4947255;29;20258;-75
2022/04/27 09:46:31;;;;;;;16.13;13.85;;;;;;;;;;4949108;29;20207;-76
2022/04/27 09:49:14;;;;;;;15.25;13.63;;;;;;;;;;4946715;29;20706;-75
2022/04/27 09:51:47;;;;;;;15.73;13.70;;;;;;;;;;4947088;29;20215;-76
2022/04/27 09:54:18;;;;;;;15.07;13.40;;;;;;;;;;4946949;29;20568;-75
2022/04/27 09:56:49;;;;;;;16.40;13.30;;;;;;;;;;4945274;29;20290;-77
2022/04/27 09:59:17;;;;;;;15.07;12.90;;;;;;;;;;4944472;29;20239;-76
2022/04/27 10:01:47;;;;;;;16.33;13.40;;;;;;;;;;4949408;29;20211;-76
2022/04/27 10:04:15;;;;;;;16.52;12.48;;;;;;;;;;4946043;29;20227;-77
2022/04/27 10:06:43;;;;;;;13.43;12.02;;;;;;;;;;4950502;29;20691;-76
2022/04/27 10:09:10;;;;;;;13.48;12.18;;;;;;;;;;4950415;28;20277;-76
2022/04/27 10:11:38;;;;;;;13.55;12.05;;;;;;;;;;4944070;29;20754;-76
2022/04/27 10:14:05;;;;;;;13.82;12.43;;;;;;;;;;4946666;28;20255;-76
2022/04/27 10:16:32;;;;;;;13.52;12.13;;;;;;;;;;4952713;29;20703;-76
2022/04/27 10:19:01;;;;;;;12.73;11.30;;;;;;;;;;4949304;29;20627;-76
2022/04/27 10:21:39;;;;;;;12.57;11.25;;;;;;;;;;4949977;29;20290;-76
2022/04/27 10:24:06;;;;;;;13.93;12.32;;;;;;;;;;4950673;29;20199;-76
2022/04/27 10:26:33;;;;;;;14.45;12.60;;;;;;;;;;4954504;29;20231;-76
2022/04/27 10:29:02;;;;;;;14.85;12.50;;;;;;;;;;4950100;29;20741;-76
2022/04/27 10:31:46;;;;;;;14.38;12.27;;;;;;;;;;4951610;29;20207;-76
2022/04/27 10:34:19;;;;;;;16.42;12.55;;;;;;;;;;4940279;29;20224;-76
2022/04/27 10:36:47;;;;;;;13.23;11.85;;;;;;;;;;4951930;29;20227;-76
2022/04/27 10:39:19;;;;;;;12.77;11.40;;;;;;;;;;4949350;29;20286;-76
2022/04/27 10:41:50;;;;;;;13.23;11.73;;;;;;;;;;4953676;29;20702;-76
2022/04/27 10:44:17;;;;;;;15.25;11.90;;;;;;;;;;4954446;29;20290;-76
2022/04/27 10:46:44;;;;;;;13.52;11.35;;;;;;;;;;4952986;29;20199;-76
2022/04/27 10:49:27;;;;;;;13.77;12.30;;;;;;;;;;4955570;29;20199;-80
2022/04/27 10:52:01;;;;;;;14.05;12.50;;;;;;;;;;4945070;29;20238;-80
2022/04/27 10:54:31;;;;;;;16.98;12.05;;;;;;;;;;4945761;29;20194;-80
2022/04/27 10:57:31;;;;;;;14.75;12.77;;;;;;;;;;4947427;29;20208;-80
2022/04/27 11:00:00;;;;;;;14.02;12.52;;;;;;;;;;4947139;28;20199;-80
2022/04/27 11:02:34;;;;;;;13.02;11.73;;;;;;;;;;4943430;29;20702;-80
2022/04/27 11:05:04;;;;;;;16.45;13.50;;;;;;;;;;4953172;29;20212;-80
2022/04/27 11:07:39;;;;;;;14.55;12.57;;;;;;;;;;4946588;28;20337;-80
2022/04/27 11:10:24;;;;;;;15.50;12.52;;;;;;;;;;4948996;29;20204;-81
2022/04/27 11:12:53;;;;;;;13.50;12.10;;;;;;;;;;4938883;29;20644;-80
2022/04/27 11:15:22;;;;;;;14.77;12.23;;;;;;;;;;4955648;29;20249;-80
2022/04/27 11:17:55;;;;;;;14.48;12.95;;;;;;;;;;4950183;29;20210;-80
2022/04/27 11:20:43;;;;;;;15.70;12.90;;;;;;;;;;4947859;29;20581;-80
2022/04/27 11:23:21;;;;;;;14.93;13.27;;;;;;;;;;4941105;29;20219;-76
2022/04/27 11:25:51;;;;;;;13.88;12.15;;;;;;;;;;4943485;29;20290;-76
2022/04/27 11:28:19;;;;;;;15.20;13.60;;;;;;;;;;4943906;29;20210;-76
2022/04/27 11:30:47;;;;;;;15.18;12.82;;;;;;;;;;4950992;28;20254;-77
2022/04/27 11:33:17;;;;;;;13.88;12.38;;;;;;;;;;4951681;28;20227;-77
2022/04/27 11:35:47;;;;;;;16.60;13.02;;;;;;;;;;4941503;29;20299;-77
2022/04/27 11:38:19;;;;;;;16.42;13.43;;;;;;;;;;4952338;29;20214;-76
2022/04/27 11:40:48;;;;;;;15.20;13.13;;;;;;;;;;4938839;29;20214;-76
2022/04/27 11:43:23;;;;;;;13.05;11.57;;;;;;;;;;4944842;29;20290;-75
2022/04/27 11:45:54;;;;;;;16.08;13.48;;;;;;;;;;4946990;29;20298;-77
2022/04/27 11:48:22;;;;;;;14.23;11.80;;;;;;;;;;4949008;29;20238;-76
2022/04/27 11:50:49;;;;;;;14.40;12.43;;;;;;;;;;4943425;29;20770;-76
2022/04/27 11:53:20;;;;;;;13.48;12.07;;;;;;;;;;4953023;29;20262;-76
2022/04/27 11:55:51;;;;;;;15.40;12.25;;;;;;;;;;4948035;29;20210;-76
2022/04/27 11:58:22;;;;;;;13.82;11.80;;;;;;;;;;4946282;29;20210;-76
2022/04/27 12:00:50;;;;;;;13.13;11.70;;;;;;;;;;4947460;29;20227;-76
2022/04/27 12:03:18;;;;;;;15.13;12.25;;;;;;;;;;4938812;29;20296;-77
2022/04/27 12:05:50;;;;;;;14.45;12.48;;;;;;;;;;4944660;29;20318;-76
2022/04/27 12:08:21;;;;;;;14.15;12.65;;;;;;;;;;4952905;28;20251;-77
2022/04/27 12:10:49;;;;;;;13.75;12.13;;;;;;;;;;4935229;29;20246;-76
2022/04/27 12:13:17;;;;;;;14.07;12.57;;;;;;;;;;4952468;28;20218;-77
2022/04/27 12:15:47;;;;;;;13.90;12.50;;;;;;;;;;4956328;28;20289;-76
2022/04/27 12:18:17;;;;;;;13.48;11.40;;;;;;;;;;4937437;29;20207;-76
2022/04/27 12:20:45;;;;;;;13.52;11.88;;;;;;;;;;4945345;29;20788;-77
2022/04/27 12:23:13;;;;;;;13.20;11.80;;;;;;;;;;4953411;29;20206;-77
2022/04/27 12:25:43;;;;;;;13.50;12.00;;;;;;;;;;4951939;29;20203;-76
2022/04/27 12:28:12;;;;;;;15.63;12.48;;;;;;;;;;4951466;29;20206;-76
2022/04/27 12:30:43;;;;;;;16.10;12.82;;;;;;;;;;4946207;28;20207;-76
2022/04/27 12:33:10;;;;;;;14.27;11.65;;;;;;;;;;4950073;28;20224;-77
2022/04/27 12:38:23;;;;;;;12.23;10.75;;;;;;;;;;4957257;28;20333;-77
2022/04/27 12:40:52;;;;;;;12.63;11.27;;;;;;;;;;4951624;28;20218;-77
2022/04/27 12:43:22;;;;;;;13.85;12.15;;;;;;;;;;4943275;28;20278;-78
2022/04/27 12:46:06;;;;;;;12.63;10.98;;;;;;;;;;4953958;28;20199;-77
2022/04/27 12:48:35;;;;;;;16.30;11.70;;;;;;;;;;4955194;28;20329;-77
2022/04/27 12:51:02;;;;;;;14.95;10.75;;;;;;;;;;4950629;28;20670;-77
2022/04/27 12:53:30;;;;;;;11.90;10.23;;;;;;;;;;4955866;28;20779;-78
2022/04/27 12:56:09;;;;;;;13.23;10.82;;;;;;;;;;4949837;28;20211;-78
2022/04/27 12:58:36;;;;;;;13.38;11.05;;;;;;;;;;4954017;28;20206;-76
2022/04/27 13:01:04;;;;;;;13.93;10.85;;;;;;;;;;4945697;28;20298;-76
2022/04/27 13:03:31;;;;;;;14.35;11.05;;;;;;;;;;4958478;28;20302;-77
2022/04/27 13:05:58;;;;;;;12.60;11.07;;;;;;;;;;4956133;28;20232;-78
2022/04/27 13:08:26;;;;;;;12.98;11.35;;;;;;;;;;4949959;28;20238;-78
2022/04/27 13:13:39;;;;;;;14.73;11.20;;;;;;;;;;4957638;28;20300;-78
2022/04/27 13:16:06;;;;;;;11.88;9.40;;;;;;;;;;4946097;28;20299;-78
2022/04/27 13:18:34;;;;;;;11.75;9.65;;;;;;;;;;4946196;28;20843;-78
2022/04/27 13:21:01;;;;;;;10.95;9.75;;;;;;;;;;4951428;28;20227;-78
2022/04/27 13:23:29;;;;;;;10.45;9.25;;;;;;;;;;4945668;28;20242;-78
2022/04/27 13:25:56;;;;;;;9.88;8.73;;;;;;;;;;4951562;28;20211;-78
2022/04/27 13:28:23;;;;;;;10.07;8.50;;;;;;;;;;4936109;28;20202;-78
2022/04/27 13:30:53;;;;;;;9.57;8.50;;;;;;;;;;4945171;28;20222;-78
2022/04/27 13:33:21;;;;;;;11.45;9.40;;;;;;;;;;4944081;28;20218;-77
2022/04/27 13:35:48;;;;;;;11.43;9.48;;;;;;;;;;4943963;28;20583;-77
2022/04/27 13:38:16;;;;;;;10.73;9.63;;;;;;;;;;4948501;28;20345;-77
2022/04/27 13:40:43;;;;;;;11.13;9.65;;;;;;;;;;4949423;28;20230;-77
2022/04/27 13:43:10;;;;;;;11.27;9.13;;;;;;;;;;4958406;28;20294;-77
2022/04/27 13:45:37;;;;;;;13.00;9.38;;;;;;;;;;4952400;28;20762;-78
2022/04/27 13:48:06;;;;;;;9.38;8.30;;;;;;;;;;4951403;28;20289;-77
2022/04/27 13:50:34;;;;;;;9.70;8.32;;;;;;;;;;4961801;28;20710;-78
2022/04/27 13:53:01;;;;;;;8.80;7.90;;;;;;;;;;4962267;28;20230;-77
2022/04/27 13:55:30;;;;;;;9.18;8.27;;;;;;;;;;4966644;28;20240;-78
2022/04/27 13:57:57;;;;;;;9.20;7.50;;;;;;;;;;4955379;29;20837;-77
2022/04/27 14:00:24;;;;;;;8.98;6.88;;;;;;;;;;4952618;29;20620;-77
2022/04/27 14:02:52;;;;;;;7.68;6.85;;;;;;;;;;4954106;29;20249;-78
2022/04/27 14:05:21;;;;;;;7.28;6.45;;;;;;;;;;4950141;29;20204;-77
2022/04/27 14:07:48;;;;;;;8.68;6.28;;;;;;;;;;4952675;28;20234;-77
2022/04/27 14:10:16;;;;;;;9.63;7.50;;;;;;;;;;4952313;29;20211;-77
2022/04/27 14:15:29;;;;;;;9.63;6.82;;;;;;;;;;4952387;29;20238;-77
2022/04/27 14:18:10;;;;;;;7.97;7.18;;;;;;;;;;4951823;29;20206;-76
2022/04/27 14:20:40;;;;;;;7.88;6.53;;;;;;;;;;4952210;29;20195;-78
2022/04/27 14:23:09;;;;;;;8.32;7.00;;;;;;;;;;4946585;28;20211;-79
2022/04/27 14:25:36;;;;;;;7.57;6.78;;;;;;;;;;4942724;29;20200;-78
2022/04/27 14:28:04;;;;;;;8.32;7.28;;;;;;;;;;4946258;28;20609;-78
2022/04/27 14:30:31;;;;;;;8.23;7.22;;;;;;;;;;4952583;29;20212;-78
2022/04/27 14:32:59;;;;;;;7.82;6.45;;;;;;;;;;4943918;29;20238;-76
2022/04/27 14:35:26;;;;;;;8.18;7.30;;;;;;;;;;4953917;28;20223;-78
2022/04/27 14:37:55;;;;;;;9.05;7.78;;;;;;;;;;4954701;28;20289;-77
2022/04/27 14:40:22;;;;;;;9.80;7.72;;;;;;;;;;4962199;28;20235;-76
2022/04/27 14:42:49;;;;;;;10.60;8.35;;;;;;;;;;4950627;28;20659;-78
2022/04/27 14:45:17;;;;;;;7.85;7.05;;;;;;;;;;4945388;28;20235;-78
2022/04/27 14:47:44;;;;;;;8.57;7.13;;;;;;;;;;4953718;28;20290;-78
2022/04/27 14:50:11;;;;;;;7.80;6.68;;;;;;;;;;4951157;28;20290;-75
2022/04/27 14:52:40;;;;;;;7.78;6.90;;;;;;;;;;4967942;28;21515;-78
2022/04/27 14:55:12;;;;;;;8.25;7.25;;;;;;;;;;4953413;28;20263;-78
2022/04/27 14:57:40;;;;;;;7.90;7.10;;;;;;;;;;4949946;29;20241;-82
2022/04/27 15:00:10;;;;;;;8.32;7.25;;;;;;;;;;4947571;28;20200;-81